createdAt,value
2023-05-17T00:01:08.045Z,70.07
2023-05-17T00:03:36.179Z,70.10
2023-05-17T00:06:04.325Z,69.79
2023-05-17T00:08:32.284Z,69.37
2023-05-17T00:11:00.240Z,69.38
2023-05-17T00:13:28.076Z,69.17
2023-05-17T00:15:55.937Z,69.61
2023-05-17T00:18:25.523Z,70.35
2023-05-17T00:20:53.412Z,70.78
2023-05-17T00:23:21.313Z,70.88
2023-05-17T00:25:49.172Z,71.07
2023-05-17T00:28:17.029Z,70.74
2023-05-17T00:30:45.344Z,71.09
2023-05-17T00:33:13.167Z,71.78
2023-05-17T00:35:42.331Z,71.98
2023-05-17T00:38:10.212Z,72.51
2023-05-17T00:40:38.014Z,72.48
2023-05-17T00:43:05.913Z,72.75
2023-05-17T00:45:33.824Z,72.88
2023-05-17T00:48:01.788Z,72.49
2023-05-17T00:50:29.755Z,71.95
2023-05-17T00:52:59.419Z,71.72
2023-05-17T00:55:28.092Z,71.37
2023-05-17T00:57:56.267Z,71.90
2023-05-17T01:00:24.684Z,71.57
2023-05-17T01:02:52.767Z,70.87
2023-05-17T01:05:20.625Z,71.15
2023-05-17T01:07:48.454Z,71.13
2023-05-17T01:10:17.827Z,71.15
2023-05-17T01:13:00.656Z,71.10
2023-05-17T01:15:32.802Z,71.31
2023-05-17T01:18:10.614Z,71.06
2023-05-17T01:20:41.485Z,71.16
2023-05-17T01:23:25.337Z,70.75
2023-05-17T01:26:00.194Z,70.86
2023-05-17T01:28:32.502Z,71.44
2023-05-17T01:31:03.876Z,71.16
2023-05-17T01:33:32.874Z,71.48
2023-05-17T01:36:00.777Z,71.22
2023-05-17T01:38:28.617Z,71.06
2023-05-17T01:41:02.937Z,71.28
2023-05-17T01:43:40.734Z,71.08
2023-05-17T01:46:14.137Z,71.19
2023-05-17T01:48:46.382Z,70.92
2023-05-17T01:51:20.075Z,71.26
2023-05-17T01:53:53.141Z,71.74
2023-05-17T01:56:23.080Z,71.71
2023-05-17T01:58:54.444Z,71.64
2023-05-17T02:01:23.891Z,72.21
2023-05-17T02:03:51.977Z,72.15
2023-05-17T02:06:19.844Z,72.38
2023-05-17T02:08:47.673Z,72.51
2023-05-17T02:11:15.609Z,72.93
2023-05-17T02:13:43.416Z,72.70
2023-05-17T02:16:12.613Z,72.98
2023-05-17T02:18:41.383Z,72.85
2023-05-17T02:21:09.716Z,73.05
2023-05-17T02:23:38.066Z,73.56
2023-05-17T02:26:05.961Z,73.34
2023-05-17T02:28:33.772Z,73.30
2023-05-17T02:31:01.589Z,73.76
2023-05-17T02:33:31.300Z,73.45
2023-05-17T02:35:59.129Z,73.63
2023-05-17T02:38:26.941Z,74.00
2023-05-17T02:40:55.185Z,73.96
2023-05-17T02:45:50.875Z,74.75
2023-05-17T02:48:18.775Z,74.51
2023-05-17T02:50:47.969Z,75.10
2023-05-17T02:53:15.774Z,74.92
2023-05-17T02:55:43.651Z,74.73
2023-05-17T02:58:11.476Z,75.06
2023-05-17T03:00:39.437Z,74.87
2023-05-17T03:03:07.373Z,75.42
2023-05-17T03:05:35.295Z,75.19
2023-05-17T03:08:04.568Z,75.16
2023-05-17T03:10:32.430Z,75.13
2023-05-17T03:13:00.228Z,75.54
2023-05-17T03:15:29.923Z,75.37
2023-05-17T03:17:58.131Z,75.24
2023-05-17T03:20:26.218Z,75.23
2023-05-17T03:22:54.121Z,75.48
2023-05-17T03:25:23.277Z,75.05
2023-05-17T03:27:51.183Z,75.03
2023-05-17T03:30:19.352Z,75.01
2023-05-17T03:32:47.405Z,75.02
2023-05-17T03:35:15.431Z,74.98
2023-05-17T03:37:43.275Z,74.96
2023-05-17T03:40:11.957Z,75.77
2023-05-17T03:42:41.502Z,75.28
2023-05-17T03:45:10.081Z,75.97
2023-05-17T03:47:37.975Z,75.45
2023-05-17T03:50:07.086Z,75.94
2023-05-17T03:52:34.912Z,76.20
2023-05-17T03:55:03.230Z,76.30
2023-05-17T03:57:31.097Z,75.79
2023-05-17T04:00:00.612Z,76.28
2023-05-17T04:02:28.450Z,76.04
2023-05-17T04:04:56.413Z,76.26
2023-05-17T04:07:24.558Z,76.03
2023-05-17T04:09:52.371Z,75.95
2023-05-17T04:12:20.287Z,75.88
2023-05-17T04:14:48.108Z,76.50
2023-05-17T04:17:17.443Z,76.32
2023-05-17T04:19:45.316Z,76.40
2023-05-17T04:22:13.211Z,75.55
2023-05-17T04:24:41.297Z,76.26
2023-05-17T04:27:09.092Z,76.65
2023-05-17T04:29:36.915Z,76.21
2023-05-17T04:32:05.009Z,75.88
2023-05-17T04:34:34.233Z,76.17
2023-05-17T04:37:02.081Z,76.07
2023-05-17T04:39:30.873Z,75.98
2023-05-17T04:41:58.841Z,75.69
2023-05-17T04:44:27.229Z,76.26
2023-05-17T04:46:55.151Z,76.03
2023-05-17T04:49:25.196Z,76.58
2023-05-17T04:51:54.549Z,76.62
2023-05-17T04:54:22.422Z,76.58
2023-05-17T04:56:50.272Z,75.96
2023-05-17T04:59:18.108Z,76.11
2023-05-17T05:01:45.937Z,76.48
2023-05-17T05:04:14.031Z,75.64
2023-05-17T05:06:41.978Z,76.40
2023-05-17T05:09:11.313Z,75.61
2023-05-17T05:11:39.257Z,76.21
2023-05-17T05:14:07.051Z,76.22
2023-05-17T05:16:34.886Z,75.78
2023-05-17T05:19:03.056Z,76.23
2023-05-17T05:21:31.697Z,75.77
2023-05-17T05:23:59.593Z,75.77
2023-05-17T05:26:28.871Z,75.80
2023-05-17T05:28:56.745Z,75.73
2023-05-17T05:31:24.664Z,75.80
2023-05-17T05:33:52.608Z,75.57
2023-05-17T05:36:20.603Z,76.20
2023-05-17T05:38:49.697Z,75.54
2023-05-17T05:41:17.672Z,75.90
2023-05-17T05:43:46.878Z,75.68
2023-05-17T05:46:14.911Z,76.22
2023-05-17T05:48:43.495Z,76.27
2023-05-17T05:51:12.408Z,75.37
2023-05-17T05:53:40.386Z,75.93
2023-05-17T05:56:09.466Z,75.96
2023-05-17T05:58:37.420Z,75.84
2023-05-17T06:01:07.030Z,75.80
2023-05-17T06:03:34.947Z,75.84
2023-05-17T06:06:02.876Z,75.32
2023-05-17T06:08:30.794Z,75.26
2023-05-17T06:10:58.740Z,75.76
2023-05-17T06:13:26.607Z,75.34
2023-05-17T06:15:54.464Z,75.16
2023-05-17T06:18:23.661Z,75.24
2023-05-17T06:20:51.664Z,75.50
2023-05-17T06:23:19.453Z,75.38
2023-05-17T06:25:47.286Z,75.85
2023-05-17T06:28:15.143Z,75.39
2023-05-17T06:30:42.946Z,75.48
2023-05-17T06:33:10.836Z,75.29
2023-05-17T06:35:55.000Z,76.22
2023-05-17T06:38:24.755Z,75.85
2023-05-17T06:40:53.949Z,76.03
2023-05-17T06:43:21.935Z,76.72
2023-05-17T06:45:50.156Z,76.96
2023-05-17T06:48:18.249Z,76.30
2023-05-17T06:50:47.914Z,76.18
2023-05-17T06:53:15.805Z,75.96
2023-05-17T06:55:43.644Z,76.43
2023-05-17T06:58:11.701Z,76.73
2023-05-17T07:00:39.561Z,77.65
2023-05-17T07:03:07.577Z,77.04
2023-05-17T07:05:36.244Z,77.19
2023-05-17T07:08:06.104Z,77.15
2023-05-17T07:10:34.059Z,77.43
2023-05-17T07:13:01.928Z,77.21
2023-05-17T07:15:30.158Z,77.17
2023-05-17T07:17:59.479Z,76.91
2023-05-17T07:20:27.451Z,77.14
2023-05-17T07:22:56.380Z,77.00
2023-05-17T07:25:25.599Z,76.33
2023-05-17T07:27:53.471Z,75.97
2023-05-17T07:30:21.424Z,75.98
2023-05-17T07:32:49.251Z,75.90
2023-05-17T07:35:17.826Z,75.87
2023-05-17T07:37:47.419Z,75.46
2023-05-17T07:40:15.584Z,75.74
2023-05-17T07:42:44.759Z,75.24
2023-05-17T07:45:12.825Z,75.13
2023-05-17T07:47:40.787Z,74.81
2023-05-17T07:50:09.215Z,75.28
2023-05-17T07:52:37.044Z,75.41
2023-05-17T07:55:05.972Z,75.27
2023-05-17T07:57:33.835Z,75.73
2023-05-17T08:00:03.914Z,75.89
2023-05-17T08:02:31.856Z,77.30
2023-05-17T08:05:00.129Z,78.69
2023-05-17T08:07:28.110Z,79.10
2023-05-17T08:09:56.039Z,76.99
2023-05-17T08:12:23.943Z,76.95
2023-05-17T08:14:51.887Z,77.55
2023-05-17T08:17:22.331Z,77.50
2023-05-17T08:19:50.315Z,77.74
2023-05-17T08:22:18.236Z,77.11
2023-05-17T08:24:46.201Z,76.90
2023-05-17T08:27:14.012Z,77.08
2023-05-17T08:29:41.857Z,76.83
2023-05-17T08:32:12.074Z,76.25
2023-05-17T08:34:41.312Z,75.36
2023-05-17T08:37:10.119Z,75.15
2023-05-17T08:39:38.055Z,75.16
2023-05-17T08:42:08.997Z,76.20
2023-05-17T08:44:38.743Z,75.49
2023-05-17T08:47:09.379Z,75.60
2023-05-17T08:49:38.115Z,75.61
2023-05-17T08:52:10.177Z,75.09
2023-05-17T08:54:38.142Z,74.48
2023-05-17T08:57:07.877Z,75.03
2023-05-17T08:59:36.774Z,75.76
2023-05-17T09:02:07.439Z,75.46
2023-05-17T09:04:35.441Z,76.05
2023-05-17T09:07:03.350Z,75.90
2023-05-17T09:09:32.758Z,76.13
2023-05-17T09:12:00.643Z,74.99
2023-05-17T09:14:34.197Z,74.49
2023-05-17T09:17:04.646Z,75.35
2023-05-17T09:19:33.002Z,76.09
2023-05-17T09:22:02.664Z,75.49
2023-05-17T09:24:32.579Z,75.14
2023-05-17T09:27:04.819Z,76.17
2023-05-17T09:29:33.501Z,76.36
2023-05-17T09:32:14.156Z,76.90
2023-05-17T09:34:42.759Z,76.34
2023-05-17T09:37:20.963Z,77.24
2023-05-17T09:39:50.319Z,75.89
2023-05-17T09:42:18.719Z,76.40
2023-05-17T09:44:48.460Z,76.19
2023-05-17T09:47:27.038Z,76.89
2023-05-17T09:49:56.666Z,77.47
2023-05-17T09:52:25.189Z,76.78
2023-05-17T09:54:55.266Z,77.24
2023-05-17T09:57:23.808Z,77.52
2023-05-17T09:59:53.153Z,77.58
2023-05-17T10:02:27.965Z,77.40
2023-05-17T10:04:58.279Z,77.73
2023-05-17T10:07:28.230Z,78.09
2023-05-17T10:09:58.519Z,77.95
2023-05-17T10:12:30.094Z,77.37
2023-05-17T10:15:00.052Z,77.78
2023-05-17T10:17:29.914Z,77.21
2023-05-17T10:19:58.832Z,77.65
2023-05-17T10:22:29.245Z,76.78
2023-05-17T10:24:59.229Z,76.91
2023-05-17T10:27:27.974Z,77.16
2023-05-17T10:29:56.550Z,77.15
2023-05-17T10:32:27.302Z,75.85
2023-05-17T10:35:09.489Z,77.06
2023-05-17T10:37:40.593Z,76.71
2023-05-17T10:40:13.981Z,76.53
2023-05-17T10:42:44.721Z,75.83
2023-05-17T10:45:13.761Z,75.25
2023-05-17T10:47:42.976Z,75.48
2023-05-17T10:50:13.086Z,75.53
2023-05-17T10:52:48.429Z,74.39
2023-05-17T10:55:21.992Z,74.79
2023-05-17T10:58:17.127Z,74.63
2023-05-17T11:00:47.497Z,75.62
2023-05-17T11:03:17.425Z,75.37
2023-05-17T11:06:12.798Z,75.86
2023-05-17T11:09:08.062Z,74.03
2023-05-17T11:11:37.711Z,73.79
2023-05-17T11:14:06.776Z,74.66
2023-05-17T11:16:37.778Z,74.71
2023-05-17T11:19:10.757Z,74.69
2023-05-17T11:21:47.472Z,73.79
2023-05-17T11:24:19.766Z,72.91
2023-05-17T11:26:51.973Z,73.69
2023-05-17T11:29:19.789Z,74.19
2023-05-17T11:31:52.897Z,74.46
2023-05-17T11:36:54.025Z,73.23
2023-05-17T11:39:23.722Z,75.27
2023-05-17T11:41:55.585Z,75.04
2023-05-17T11:44:26.957Z,75.22
2023-05-17T11:47:02.713Z,75.08
2023-05-17T11:49:35.618Z,75.94
2023-05-17T11:52:04.640Z,75.64
2023-05-17T11:54:32.904Z,74.87
2023-05-17T11:57:04.052Z,75.39
2023-05-17T11:59:39.886Z,74.48
2023-05-17T12:02:08.069Z,73.23
2023-05-17T12:04:38.522Z,73.02
2023-05-17T12:07:09.875Z,72.36
2023-05-17T12:09:40.015Z,72.37
2023-05-17T12:12:09.787Z,72.25
2023-05-17T12:14:38.138Z,71.77
2023-05-17T12:17:09.804Z,72.21
2023-05-17T12:19:38.009Z,72.28
2023-05-17T12:22:12.678Z,72.38
2023-05-17T12:24:41.958Z,71.52
2023-05-17T12:27:11.824Z,72.21
2023-05-17T12:29:39.963Z,72.73
2023-05-17T12:32:09.760Z,72.25
2023-05-17T12:34:38.040Z,72.47
2023-05-17T12:37:10.498Z,72.13
2023-05-17T12:39:39.161Z,72.16
2023-05-17T12:42:07.972Z,72.81
2023-05-17T12:44:37.450Z,73.33
2023-05-17T12:47:05.439Z,73.38
2023-05-17T12:49:39.544Z,72.32
2023-05-17T12:52:07.994Z,72.64
2023-05-17T12:54:36.177Z,73.42
2023-05-17T12:57:16.065Z,73.47
2023-05-17T12:59:53.751Z,73.50
2023-05-17T13:02:21.862Z,73.79
2023-05-17T13:04:49.788Z,73.48
2023-05-17T13:07:23.796Z,74.05
2023-05-17T13:09:52.090Z,74.09
2023-05-17T13:12:21.672Z,74.01
2023-05-17T13:14:53.228Z,73.13
2023-05-17T13:17:27.320Z,72.92
2023-05-17T13:19:57.470Z,72.89
2023-05-17T13:22:26.249Z,73.38
2023-05-17T13:24:55.010Z,73.85
2023-05-17T13:27:23.093Z,73.55
2023-05-17T13:29:52.518Z,74.39
2023-05-17T13:32:20.535Z,73.81
2023-05-17T13:34:48.452Z,74.26
2023-05-17T13:37:16.324Z,74.54
2023-05-17T13:39:44.360Z,75.17
2023-05-17T13:42:14.688Z,75.03
2023-05-17T13:44:42.575Z,75.08
2023-05-17T13:47:12.200Z,75.32
2023-05-17T13:49:40.056Z,74.53
2023-05-17T13:52:09.531Z,74.20
2023-05-17T13:54:39.199Z,74.29
2023-05-17T13:57:07.284Z,71.58
2023-05-17T13:59:35.254Z,72.32
2023-05-17T14:02:04.233Z,73.54
2023-05-17T14:04:33.546Z,73.42
2023-05-17T14:07:01.866Z,74.57
2023-05-17T14:09:32.929Z,74.81
2023-05-17T14:12:01.449Z,75.18
2023-05-17T14:14:29.387Z,75.06
2023-05-17T14:16:57.788Z,75.14
2023-05-17T14:19:25.845Z,75.38
2023-05-17T14:21:55.199Z,75.48
2023-05-17T14:24:23.175Z,76.12
2023-05-17T14:26:51.273Z,76.38
2023-05-17T14:29:19.115Z,76.04
2023-05-17T14:31:47.050Z,76.12
2023-05-17T14:34:14.968Z,76.36
2023-05-17T14:36:43.017Z,75.23
2023-05-17T14:39:12.356Z,75.39
2023-05-17T14:41:41.176Z,73.31
2023-05-17T14:44:09.987Z,74.36
2023-05-17T14:46:37.964Z,75.09
2023-05-17T14:49:06.577Z,74.61
2023-05-17T14:51:34.466Z,74.42
2023-05-17T14:54:02.291Z,74.92
2023-05-17T14:56:32.209Z,75.37
2023-05-17T14:59:00.085Z,75.36
2023-05-17T15:01:28.068Z,74.75
2023-05-17T15:03:55.948Z,74.94
2023-05-17T15:06:25.674Z,75.14
2023-05-17T15:08:54.534Z,73.67
2023-05-17T15:11:22.773Z,74.33
2023-05-17T15:13:51.910Z,73.62
2023-05-17T15:16:19.856Z,72.72
2023-05-17T15:18:48.441Z,72.68
2023-05-17T15:21:17.691Z,72.51
2023-05-17T15:23:46.153Z,72.37
2023-05-17T15:26:14.097Z,72.36
2023-05-17T15:28:41.972Z,72.80
2023-05-17T15:31:11.696Z,72.54
2023-05-17T15:33:40.439Z,72.47
2023-05-17T15:36:09.742Z,73.28
2023-05-17T15:38:39.003Z,73.13
2023-05-17T15:41:08.261Z,72.70
2023-05-17T15:43:36.389Z,73.39
2023-05-17T15:46:04.371Z,73.20
2023-05-17T15:48:34.264Z,73.32
2023-05-17T15:51:02.280Z,74.09
2023-05-17T15:53:31.111Z,74.47
2023-05-17T15:55:58.931Z,74.32
2023-05-17T15:58:28.640Z,72.84
2023-05-17T16:00:56.785Z,73.90
2023-05-17T16:03:24.689Z,74.00
2023-05-17T16:05:53.913Z,73.73
2023-05-17T16:08:21.879Z,74.72
2023-05-17T16:10:49.820Z,74.38
2023-05-17T16:13:17.830Z,74.39
2023-05-17T16:15:46.045Z,75.06
2023-05-17T16:18:15.262Z,74.42
2023-05-17T16:20:43.610Z,74.22
2023-05-17T16:23:13.691Z,73.47
2023-05-17T16:25:41.604Z,74.11
2023-05-17T16:28:09.626Z,73.94
2023-05-17T16:30:37.568Z,73.91
2023-05-17T16:33:08.164Z,73.67
2023-05-17T16:35:36.532Z,74.72
2023-05-17T16:38:04.329Z,73.83
2023-05-17T16:40:34.003Z,72.96
2023-05-17T16:43:02.192Z,74.24
2023-05-17T16:45:30.361Z,73.62
2023-05-17T16:47:58.485Z,73.56
2023-05-17T16:50:26.851Z,73.20
2023-05-17T16:52:54.882Z,72.26
2023-05-17T16:55:23.535Z,72.36
2023-05-17T16:57:53.120Z,73.08
2023-05-17T17:00:21.626Z,73.59
2023-05-17T17:02:49.621Z,73.80
2023-05-17T17:05:17.821Z,73.93
2023-05-17T17:07:47.377Z,73.74
2023-05-17T17:10:15.490Z,73.57
2023-05-17T17:12:43.353Z,73.55
2023-05-17T17:15:13.148Z,73.01
2023-05-17T17:17:41.172Z,73.77
2023-05-17T17:20:10.325Z,74.18
2023-05-17T17:22:38.191Z,74.22
2023-05-17T17:25:07.481Z,73.15
2023-05-17T17:27:35.513Z,73.73
2023-05-17T17:30:03.722Z,73.52
2023-05-17T17:32:33.245Z,74.04
2023-05-17T17:35:01.287Z,73.69
2023-05-17T17:37:29.162Z,74.07
2023-05-17T17:39:57.023Z,74.08
2023-05-17T17:42:24.859Z,73.20
2023-05-17T17:44:52.694Z,72.41
2023-05-17T17:47:20.630Z,72.68
2023-05-17T17:49:49.939Z,73.06
2023-05-17T17:52:17.747Z,73.64
2023-05-17T17:54:46.298Z,73.92
2023-05-17T17:57:14.615Z,74.15
2023-05-17T17:59:42.496Z,74.51
2023-05-17T18:02:10.342Z,74.38
2023-05-17T18:04:38.194Z,74.86
2023-05-17T18:07:07.947Z,74.49
2023-05-17T18:09:35.975Z,74.29
2023-05-17T18:12:03.954Z,74.99
2023-05-17T18:14:31.807Z,74.89
2023-05-17T18:16:59.644Z,74.90
2023-05-17T18:19:27.581Z,75.08
2023-05-17T18:21:55.746Z,74.45
2023-05-17T18:24:24.961Z,75.11
2023-05-17T18:26:52.845Z,75.01
2023-05-17T18:29:21.328Z,75.07
2023-05-17T18:31:49.425Z,75.31
2023-05-17T18:34:17.265Z,75.90
2023-05-17T18:36:46.019Z,75.64
2023-05-17T18:39:13.981Z,75.30
2023-05-17T18:41:43.234Z,74.87
2023-05-17T18:44:12.107Z,75.30
2023-05-17T18:46:41.015Z,75.03
2023-05-17T18:49:08.872Z,75.35
2023-05-17T18:51:36.713Z,75.18
2023-05-17T18:54:04.884Z,75.16
2023-05-17T18:56:32.841Z,75.33
2023-05-17T18:59:02.312Z,75.03
2023-05-17T19:01:30.347Z,75.39
2023-05-17T19:03:58.529Z,75.23
2023-05-17T19:06:27.713Z,74.85
2023-05-17T19:08:55.651Z,74.53
2023-05-17T19:11:23.560Z,74.26
2023-05-17T19:13:51.649Z,74.57
2023-05-17T19:16:20.892Z,73.75
2023-05-17T19:18:48.984Z,74.04
2023-05-17T19:21:16.872Z,73.63
2023-05-17T19:23:45.403Z,73.90
2023-05-17T19:26:13.244Z,73.70
2023-05-17T19:28:42.076Z,73.75
2023-05-17T19:31:10.086Z,74.47
2023-05-17T19:33:39.341Z,74.39
2023-05-17T19:36:07.395Z,74.03
2023-05-17T19:38:35.297Z,74.34
2023-05-17T19:41:03.642Z,74.51
2023-05-17T19:43:32.308Z,74.32
2023-05-17T19:46:00.438Z,74.18
2023-05-17T19:48:28.335Z,74.43
2023-05-17T19:50:57.577Z,74.65
2023-05-17T19:53:25.598Z,74.44
2023-05-17T19:55:53.615Z,74.39
2023-05-17T19:58:21.539Z,74.71
2023-05-17T20:00:49.449Z,74.30
2023-05-17T20:03:17.424Z,74.30
2023-05-17T20:05:45.279Z,74.22
2023-05-17T20:08:14.487Z,74.12
2023-05-17T20:10:42.426Z,74.26
2023-05-17T20:13:10.248Z,73.90
2023-05-17T20:15:38.065Z,73.80
2023-05-17T20:18:08.063Z,73.31
2023-05-17T20:20:36.157Z,73.75
2023-05-17T20:23:04.032Z,73.82
2023-05-17T20:25:33.602Z,73.55
2023-05-17T20:28:01.448Z,73.43
2023-05-17T20:30:29.757Z,73.20
2023-05-17T20:32:57.964Z,72.68
2023-05-17T20:35:26.057Z,72.64
2023-05-17T20:37:53.918Z,72.34
2023-05-17T20:40:21.883Z,72.38
2023-05-17T20:42:53.109Z,72.20
2023-05-17T20:45:21.781Z,71.99
2023-05-17T20:47:49.817Z,71.68
2023-05-17T20:50:19.561Z,72.04
2023-05-17T20:52:49.248Z,71.53
2023-05-17T20:55:17.216Z,71.80
2023-05-17T20:57:45.040Z,71.36
2023-05-17T21:00:17.113Z,71.47
2023-05-17T21:02:45.293Z,71.42
2023-05-17T21:05:13.386Z,71.29
2023-05-17T21:07:41.260Z,71.14
2023-05-17T21:10:10.703Z,71.08
2023-05-17T21:12:38.630Z,71.09
2023-05-17T21:15:15.829Z,70.90
2023-05-17T21:17:47.027Z,71.05
2023-05-17T21:20:15.277Z,70.96
2023-05-17T21:22:43.114Z,71.23
2023-05-17T21:25:11.383Z,71.47
2023-05-17T21:27:39.180Z,71.42
2023-05-17T21:30:08.328Z,71.41
2023-05-17T21:32:36.332Z,71.36
2023-05-17T21:35:06.117Z,71.72
2023-05-17T21:37:34.105Z,71.71
2023-05-17T21:40:02.064Z,71.62
2023-05-17T21:42:29.931Z,71.59
2023-05-17T21:44:57.796Z,71.53
2023-05-17T21:47:25.793Z,71.72
2023-05-17T21:49:53.743Z,71.04
2023-05-17T21:52:23.036Z,70.88
2023-05-17T21:54:50.891Z,69.59
2023-05-17T21:57:20.977Z,68.58
2023-05-17T21:59:49.111Z,66.39
2023-05-17T22:02:17.118Z,65.12
2023-05-17T22:04:44.996Z,63.32
2023-05-17T22:07:13.352Z,63.86
2023-05-17T22:09:45.435Z,63.24
2023-05-17T22:12:13.762Z,62.41
2023-05-17T22:14:44.582Z,62.28
2023-05-17T22:17:12.559Z,62.40
2023-05-17T22:19:41.724Z,61.86
2023-05-17T22:22:09.613Z,62.09
2023-05-17T22:24:37.566Z,62.20
2023-05-17T22:27:07.352Z,62.52
2023-05-17T22:29:35.202Z,62.19
2023-05-17T22:32:03.223Z,62.37
2023-05-17T22:34:31.950Z,62.20
2023-05-17T22:36:59.986Z,62.39
2023-05-17T22:39:27.976Z,62.69
2023-05-17T22:41:55.801Z,62.01
2023-05-17T22:44:25.013Z,61.70
2023-05-17T22:46:52.910Z,61.97
2023-05-17T22:49:20.786Z,61.74
2023-05-17T22:51:48.568Z,61.99
2023-05-17T22:54:16.353Z,61.87
2023-05-17T22:56:44.224Z,61.88
2023-05-17T22:59:12.060Z,62.16
2023-05-17T23:01:41.485Z,61.18
2023-05-17T23:04:09.497Z,61.49
2023-05-17T23:06:38.220Z,61.00
2023-05-17T23:09:06.300Z,61.31
2023-05-17T23:11:35.432Z,60.50
2023-05-17T23:14:03.300Z,60.37
2023-05-17T23:16:31.250Z,60.81
2023-05-17T23:19:00.554Z,61.54
2023-05-17T23:21:28.367Z,61.57
2023-05-17T23:23:56.406Z,61.88
2023-05-17T23:26:24.270Z,61.91
2023-05-17T23:28:53.656Z,62.35
2023-05-17T23:31:22.437Z,62.25
2023-05-17T23:33:50.373Z,62.46
2023-05-17T23:36:21.668Z,62.12
2023-05-17T23:38:49.558Z,62.15
2023-05-17T23:41:18.449Z,61.81
2023-05-17T23:43:46.915Z,61.63
2023-05-17T23:46:19.947Z,61.00
2023-05-17T23:48:50.471Z,61.92
2023-05-17T23:51:21.709Z,61.50
2023-05-17T23:53:49.922Z,60.95
2023-05-17T23:56:18.194Z,61.27
2023-05-17T23:58:46.358Z,61.91
